Time;durP1;ratioP1;P1;durP2;ratioP2;P2;SDS_P1;SDS_P2;PMS_P1;PMS_P2;Temp;Humidity;BMP_temperature;BMP_pressure;BME280_temperature;BME280_humidity;BME280_pressure;Samples;Min_cycle;Max_cycle;Signal;HPM_P1;HPM_P2
2022/05/01 00:01:30;;;;;;;6.25;4.10;;;11.10;74.80;;;;;;5051980;28;20036;-67
2022/05/01 00:03:55;;;;;;;4.63;3.88;;;11.20;74.90;;;;;;5051674;28;20028;-67
2022/05/01 00:06:21;;;;;;;5.45;3.88;;;11.10;75.00;;;;;;5051735;28;20025;-67
2022/05/01 00:08:47;;;;;;;5.93;4.65;;;11.10;75.10;;;;;;5052078;28;20385;-67
2022/05/01 00:11:15;;;;;;;7.20;4.03;;;11.10;75.20;;;;;;5051732;28;20393;-67
2022/05/01 00:13:43;;;;;;;4.78;3.88;;;11.10;75.30;;;;;;5067050;28;20108;-67
2022/05/01 00:16:09;;;;;;;4.97;3.95;;;11.10;75.40;;;;;;5051745;28;20025;-67
2022/05/01 00:18:35;;;;;;;4.57;3.88;;;11.10;75.50;;;;;;5051401;28;20099;-67
2022/05/01 00:21:00;;;;;;;4.82;3.78;;;11.10;75.60;;;;;;5051671;28;20469;-67
2022/05/01 00:23:26;;;;;;;4.63;4.00;;;11.10;75.60;;;;;;5051578;28;20380;-67
2022/05/01 00:25:51;;;;;;;6.00;4.63;;;11.00;75.60;;;;;;5054635;28;20025;-67
2022/05/01 00:28:18;;;;;;;5.40;4.55;;;11.00;75.70;;;;;;5055467;28;20033;-67
2022/05/01 00:30:43;;;;;;;6.15;4.80;;;11.00;75.80;;;;;;5055437;28;20028;-67
2022/05/01 00:38:37;;;;;;;5.10;4.25;;;11.00;76.10;;;;;;5055567;28;20036;-67
2022/05/01 00:41:07;;;;;;;6.00;4.85;;;11.00;76.10;;;;;;5055129;28;20025;-67
2022/05/01 00:43:33;;;;;;;5.85;4.75;;;11.00;76.20;;;;;;5054992;28;20025;-67
2022/05/01 00:45:58;;;;;;;4.97;4.40;;;11.00;76.30;;;;;;5054908;28;20033;-67
2022/05/01 00:48:24;;;;;;;5.63;4.43;;;11.00;76.40;;;;;;5055135;28;20029;-67
2022/05/01 00:50:52;;;;;;;6.55;4.25;;;11.00;76.40;;;;;;5055175;28;20028;-67
2022/05/01 00:53:17;;;;;;;6.45;4.75;;;11.00;76.50;;;;;;5055013;28;20025;-67
2022/05/01 00:55:44;;;;;;;5.82;4.32;;;11.00;76.60;;;;;;5054891;28;20031;-67
2022/05/01 00:58:09;;;;;;;6.13;4.68;;;10.90;76.70;;;;;;5053398;28;20021;-67
2022/05/01 01:00:35;;;;;;;5.72;4.70;;;10.90;76.70;;;;;;5055128;28;20048;-67
2022/05/01 01:03:02;;;;;;;6.28;4.70;;;10.90;76.80;;;;;;5054768;28;20104;-67
2022/05/01 01:05:28;;;;;;;6.07;5.05;;;10.90;77.00;;;;;;5054517;28;20366;-67
2022/05/01 01:07:53;;;;;;;8.88;5.05;;;10.80;77.10;;;;;;5054782;28;20074;-67
2022/05/01 01:10:19;;;;;;;5.32;4.55;;;10.80;77.30;;;;;;5054574;28;20025;-67
2022/05/01 01:12:54;;;;;;;6.35;4.53;;;10.80;77.30;;;;;;5054449;28;20111;-67
2022/05/01 01:15:21;;;;;;;7.68;4.78;;;10.80;77.40;;;;;;5054389;28;20029;-67
2022/05/01 01:17:52;;;;;;;5.47;4.75;;;10.80;77.50;;;;;;5054399;28;20053;-67
2022/05/01 01:20:18;;;;;;;5.47;4.47;;;10.80;77.50;;;;;;5054431;28;20457;-67
2022/05/01 01:22:47;;;;;;;5.60;4.63;;;10.80;77.60;;;;;;5054447;28;20032;-67
2022/05/01 01:25:13;;;;;;;7.72;5.05;;;10.80;77.70;;;;;;5054346;28;20035;-67
2022/05/01 01:27:42;;;;;;;8.20;5.32;;;10.80;78.40;;;;;;5054191;28;20017;-67
2022/05/01 01:32:53;;;;;;;7.30;4.88;;;10.70;78.50;;;;;;5054674;28;20076;-67
2022/05/01 01:35:23;;;;;;;5.78;4.80;;;10.70;78.00;;;;;;5053925;28;20041;-67
2022/05/01 01:37:50;;;;;;;6.28;5.03;;;10.70;78.00;;;;;;5053549;28;20052;-67
2022/05/01 01:40:24;;;;;;;6.80;5.18;;;10.70;78.10;;;;;;5054240;28;20021;-67
2022/05/01 01:42:52;;;;;;;6.78;5.15;;;10.70;78.20;;;;;;5054133;28;20029;-67
2022/05/01 01:45:18;;;;;;;6.60;5.03;;;10.60;78.20;;;;;;5053803;28;20558;-67
2022/05/01 01:47:44;;;;;;;7.43;5.50;;;10.60;78.30;;;;;;5054038;28;20029;-67
2022/05/01 01:50:12;;;;;;;8.20;5.57;;;10.60;78.30;;;;;;5053954;28;20025;-67
2022/05/01 01:52:38;;;;;;;8.80;4.78;;;10.60;78.30;;;;;;5053878;28;20029;-67
2022/05/01 01:55:04;;;;;;;7.45;5.22;;;10.60;78.40;;;;;;5053805;28;20401;-67
2022/05/01 01:57:30;;;;;;;5.82;4.63;;;10.60;78.40;;;;;;5052139;28;20032;-67
2022/05/01 01:59:55;;;;;;;8.80;5.05;;;10.60;78.50;;;;;;5053159;28;20040;-66
2022/05/01 02:02:21;;;;;;;8.48;5.25;;;10.50;78.50;;;;;;5053800;28;20033;-67
2022/05/01 02:04:46;;;;;;;6.93;5.53;;;10.50;78.60;;;;;;5053778;28;20029;-67
2022/05/01 02:07:12;;;;;;;7.85;5.47;;;10.50;78.70;;;;;;5053627;28;20550;-67
2022/05/01 02:09:38;;;;;;;5.45;4.30;;;10.40;78.80;;;;;;5053464;28;20029;-67
2022/05/01 02:12:08;;;;;;;7.95;5.65;;;10.40;78.90;;;;;;5053413;28;20017;-67
2022/05/01 02:14:34;;;;;;;8.15;5.03;;;10.40;79.00;;;;;;5053398;28;20040;-67
2022/05/01 02:17:02;;;;;;;6.25;5.07;;;10.40;79.00;;;;;;5053498;28;20039;-67
2022/05/01 02:19:28;;;;;;;5.70;4.75;;;10.40;79.10;;;;;;5053042;28;20049;-67
2022/05/01 02:21:54;;;;;;;8.07;5.40;;;10.40;79.10;;;;;;5068693;28;20040;-67
2022/05/01 02:24:20;;;;;;;8.20;5.18;;;10.40;79.20;;;;;;5053257;28;20044;-67
2022/05/01 02:26:47;;;;;;;6.53;5.88;;;10.40;79.30;;;;;;5053074;28;20029;-67
2022/05/01 02:29:13;;;;;;;5.85;4.90;;;10.40;79.40;;;;;;5051944;28;20014;-67
2022/05/01 02:31:43;;;;;;;6.30;5.18;;;10.40;79.60;;;;;;5053147;28;20074;-67
2022/05/01 02:34:10;;;;;;;6.55;5.40;;;10.30;80.30;;;;;;5053135;28;20021;-67
2022/05/01 02:36:36;;;;;;;8.02;5.47;;;10.30;79.70;;;;;;5052641;28;20025;-67
2022/05/01 02:39:01;;;;;;;7.85;5.50;;;10.30;79.80;;;;;;5053023;28;20040;-67
2022/05/01 02:41:28;;;;;;;6.63;5.28;;;10.30;79.90;;;;;;5052978;28;20057;-67
2022/05/01 02:43:54;;;;;;;7.45;5.75;;;10.30;80.00;;;;;;5052740;28;20025;-67
2022/05/01 02:46:19;;;;;;;7.85;6.05;;;10.30;80.00;;;;;;5051705;28;20155;-67
2022/05/01 02:48:45;;;;;;;6.57;5.15;;;10.30;80.20;;;;;;5051958;28;20473;-67
2022/05/01 02:51:11;;;;;;;7.28;5.47;;;10.20;80.20;;;;;;5052790;28;20032;-67
2022/05/01 02:53:38;;;;;;;7.00;5.35;;;10.20;80.30;;;;;;5052672;28;20056;-67
2022/05/01 02:56:04;;;;;;;7.00;5.47;;;10.20;80.40;;;;;;5052573;28;20074;-67
2022/05/01 02:58:30;;;;;;;7.47;5.45;;;10.20;80.50;;;;;;5052590;28;20027;-67
2022/05/01 03:00:56;;;;;;;8.32;5.90;;;10.10;80.60;;;;;;5052299;28;20025;-67
2022/05/01 03:03:23;;;;;;;5.97;5.18;;;10.20;80.70;;;;;;5052633;28;20551;-67
2022/05/01 03:05:52;;;;;;;7.22;5.28;;;10.10;80.90;;;;;;5052617;28;20033;-67
2022/05/01 03:08:19;;;;;;;5.50;4.93;;;10.10;81.00;;;;;;5052600;28;20082;-67
2022/05/01 03:10:45;;;;;;;6.97;5.03;;;10.10;81.10;;;;;;5052374;28;20033;-67
2022/05/01 03:13:11;;;;;;;5.80;4.93;;;10.00;81.30;;;;;;5051497;28;20035;-67
2022/05/01 03:15:36;;;;;;;6.40;4.85;;;10.00;82.10;;;;;;5051943;28;20111;-67
2022/05/01 03:23:31;;;;;;;6.85;5.10;;;10.00;81.80;;;;;;5052602;28;20036;-67
2022/05/01 03:25:58;;;;;;;6.57;5.30;;;9.90;81.80;;;;;;5051871;28;20396;-67
2022/05/01 03:28:23;;;;;;;8.13;5.57;;;9.90;81.90;;;;;;5052283;28;20017;-67
2022/05/01 03:30:50;;;;;;;6.75;6.03;;;9.90;82.10;;;;;;5052102;28;20597;-67
2022/05/01 03:33:16;;;;;;;7.82;6.20;;;9.80;82.40;;;;;;5052251;28;20027;-67
2022/05/01 03:35:42;;;;;;;9.20;6.13;;;9.80;82.60;;;;;;5052176;28;20025;-67
2022/05/01 03:38:08;;;;;;;7.28;5.82;;;9.80;82.70;;;;;;5052173;28;20021;-67
2022/05/01 03:40:36;;;;;;;7.43;6.40;;;9.80;82.80;;;;;;5050686;28;20188;-67
2022/05/01 03:43:05;;;;;;;7.35;5.65;;;9.80;82.90;;;;;;5052191;28;20392;-67
2022/05/01 03:45:31;;;;;;;8.65;6.70;;;9.80;83.00;;;;;;5051760;28;20040;-67
2022/05/01 03:47:56;;;;;;;8.50;6.50;;;9.70;83.20;;;;;;5051972;28;20021;-67
2022/05/01 03:50:22;;;;;;;8.57;6.57;;;9.70;83.40;;;;;;5051981;28;20082;-67
2022/05/01 03:52:48;;;;;;;8.32;6.28;;;9.70;83.60;;;;;;5051991;28;20033;-68
2022/05/01 03:55:13;;;;;;;6.93;5.88;;;9.70;83.80;;;;;;5051947;28;20370;-67
2022/05/01 03:57:39;;;;;;;7.47;5.97;;;9.70;83.90;;;;;;5051849;28;20029;-67
2022/05/01 04:00:10;;;;;;;7.38;5.95;;;9.70;83.90;;;;;;5053897;28;20068;-67
2022/05/01 04:02:42;;;;;;;9.20;5.57;;;9.70;84.00;;;;;;5071402;28;20025;-67
2022/05/01 04:05:10;;;;;;;7.82;6.32;;;9.70;84.10;;;;;;5056176;28;20029;-67
2022/05/01 04:07:35;;;;;;;7.88;6.30;;;9.60;84.20;;;;;;5071037;28;20072;-67
2022/05/01 04:10:01;;;;;;;7.70;6.38;;;9.60;84.40;;;;;;5055939;28;20021;-67
2022/05/01 04:12:26;;;;;;;7.07;5.97;;;9.60;84.50;;;;;;5054432;28;20116;-67
2022/05/01 04:14:52;;;;;;;7.53;6.00;;;9.60;84.60;;;;;;5055794;28;20031;-67
2022/05/01 04:17:17;;;;;;;8.55;6.57;;;9.60;84.70;;;;;;5055297;28;20385;-66
2022/05/01 04:19:43;;;;;;;7.63;6.53;;;9.50;84.80;;;;;;5055735;28;20068;-67
2022/05/01 04:22:08;;;;;;;6.88;5.90;;;9.50;84.80;;;;;;5071025;28;20496;-67
2022/05/01 04:24:34;;;;;;;9.05;6.78;;;9.60;84.80;;;;;;5055338;28;20086;-67
2022/05/01 04:26:59;;;;;;;9.80;7.90;;;9.60;84.90;;;;;;5055417;28;20451;-67
2022/05/01 04:29:37;;;;;;;9.20;7.35;;;9.60;84.90;;;;;;5055505;28;20513;-67
2022/05/01 04:32:05;;;;;;;9.18;7.03;;;9.50;85.10;;;;;;5055392;28;20017;-67
2022/05/01 04:34:31;;;;;;;7.82;6.60;;;9.50;85.40;;;;;;5055336;28;20137;-67
2022/05/01 04:36:58;;;;;;;8.00;6.50;;;9.40;85.60;;;;;;5035182;28;20481;-67
2022/05/01 04:39:24;;;;;;;8.63;6.60;;;9.40;85.70;;;;;;5035689;28;20036;-67
2022/05/01 04:41:50;;;;;;;9.05;6.43;;;9.40;85.80;;;;;;5035382;28;20029;-67
2022/05/01 04:44:15;;;;;;;7.72;6.28;;;9.40;85.90;;;;;;5035349;28;20075;-67
2022/05/01 04:46:41;;;;;;;8.57;6.38;;;9.40;85.90;;;;;;5034945;28;20474;-67
2022/05/01 04:49:06;;;;;;;8.00;6.43;;;9.40;86.00;;;;;;5035238;28;20025;-67
2022/05/01 04:51:32;;;;;;;8.80;6.20;;;9.40;86.00;;;;;;5035022;28;20652;-67
2022/05/01 04:53:57;;;;;;;7.95;6.57;;;9.40;86.20;;;;;;5035056;28;20032;-67
2022/05/01 04:59:07;;;;;;;9.00;6.65;;;9.40;86.20;;;;;;5035415;28;20064;-67
2022/05/01 05:01:36;;;;;;;7.88;6.85;;;9.40;86.30;;;;;;5034804;28;20053;-67
2022/05/01 05:04:03;;;;;;;8.65;6.57;;;9.40;86.50;;;;;;5035195;28;20021;-67
2022/05/01 05:06:29;;;;;;;7.75;6.50;;;9.40;86.50;;;;;;5034715;28;20518;-67
2022/05/01 05:11:39;;;;;;;6.88;6.15;;;9.40;86.70;;;;;;5043223;28;20036;-67
2022/05/01 05:14:05;;;;;;;7.75;6.95;;;9.40;86.80;;;;;;5053669;28;20025;-67
2022/05/01 05:16:31;;;;;;;10.10;7.57;;;9.50;87.00;;;;;;5053941;28;20028;-67
2022/05/01 05:18:56;;;;;;;7.35;6.57;;;9.50;87.00;;;;;;5053522;28;20037;-67
2022/05/01 05:21:22;;;;;;;9.68;7.22;;;9.50;87.00;;;;;;5054425;28;20033;-67
2022/05/01 05:23:47;;;;;;;9.43;8.10;;;9.50;87.10;;;;;;5054455;28;20021;-67
2022/05/01 05:26:13;;;;;;;9.70;7.28;;;9.50;87.40;;;;;;5052958;28;20056;-67
2022/05/01 05:28:38;;;;;;;9.82;7.43;;;9.50;87.50;;;;;;5053888;28;20116;-67
2022/05/01 05:31:04;;;;;;;8.98;7.03;;;9.50;87.50;;;;;;5053473;28;20074;-67
2022/05/01 05:33:30;;;;;;;11.82;7.50;;;9.60;87.60;;;;;;5053321;28;20374;-67
2022/05/01 05:35:56;;;;;;;9.52;6.88;;;9.50;87.60;;;;;;5049723;28;20021;-67
2022/05/01 05:38:21;;;;;;;9.35;6.68;;;9.60;87.70;;;;;;5055382;28;20118;-67
2022/05/01 05:40:47;;;;;;;11.43;8.45;;;9.60;87.70;;;;;;5052473;28;20392;-67
2022/05/01 05:43:13;;;;;;;9.07;7.75;;;9.60;87.90;;;;;;5052325;28;20028;-67
2022/05/01 05:45:38;;;;;;;10.77;7.75;;;9.70;87.90;;;;;;5056333;28;20040;-67
2022/05/01 05:48:05;;;;;;;10.38;7.68;;;9.60;88.00;;;;;;5060310;28;20099;-67
2022/05/01 05:50:31;;;;;;;12.50;9.43;;;9.70;88.20;;;;;;5060420;28;20612;-67
2022/05/01 05:52:56;;;;;;;9.93;7.70;;;9.70;88.30;;;;;;5052225;28;20099;-67
2022/05/01 05:55:22;;;;;;;9.75;7.63;;;9.70;88.30;;;;;;5054986;28;20043;-67
2022/05/01 05:57:47;;;;;;;9.80;7.93;;;9.80;88.30;;;;;;5054783;28;20392;-67
2022/05/01 06:00:14;;;;;;;13.07;9.35;;;9.80;88.40;;;;;;5054795;28;20027;-67
2022/05/01 06:02:39;;;;;;;10.52;7.93;;;9.90;88.50;;;;;;5054283;28;20365;-67
2022/05/01 06:05:06;;;;;;;11.52;8.63;;;9.90;88.70;;;;;;5054861;28;20039;-67
2022/05/01 06:07:32;;;;;;;10.88;7.00;;;10.00;88.60;;;;;;5051865;28;20021;-68
2022/05/01 06:09:58;;;;;;;10.65;8.02;;;10.00;88.40;;;;;;5056803;28;20036;-67
2022/05/01 06:12:24;;;;;;;10.13;8.13;;;10.10;88.40;;;;;;5054818;28;20128;-67
2022/05/01 06:14:49;;;;;;;10.60;8.32;;;10.10;88.40;;;;;;5051920;28;20504;-67
2022/05/01 06:17:15;;;;;;;10.10;7.70;;;10.20;88.40;;;;;;5051476;28;20048;-66
2022/05/01 06:19:40;;;;;;;9.68;7.82;;;10.20;88.50;;;;;;5069807;28;20091;-67
2022/05/01 06:22:06;;;;;;;7.13;6.43;;;10.20;88.50;;;;;;5051676;28;20472;-67
2022/05/01 06:24:32;;;;;;;10.35;7.40;;;10.30;88.60;;;;;;5052893;28;20024;-67
2022/05/01 06:26:58;;;;;;;10.27;7.00;;;10.40;88.50;;;;;;5055548;28;20059;-67
2022/05/01 06:29:23;;;;;;;11.57;8.05;;;10.50;88.40;;;;;;5051570;28;20424;-67
2022/05/01 06:31:51;;;;;;;7.90;6.63;;;10.50;88.30;;;;;;5054317;28;20045;-67
2022/05/01 06:34:17;;;;;;;8.35;6.60;;;10.60;88.20;;;;;;5054094;28;20104;-67
2022/05/01 06:36:43;;;;;;;8.25;7.43;;;10.70;88.00;;;;;;5054411;28;20137;-67
2022/05/01 06:39:11;;;;;;;8.10;6.45;;;10.80;87.90;;;;;;5053989;28;20524;-67
2022/05/01 06:41:38;;;;;;;8.05;7.15;;;10.80;87.70;;;;;;5053995;28;20020;-67
2022/05/01 06:44:04;;;;;;;7.93;6.75;;;10.90;87.60;;;;;;5050994;28;20029;-67
2022/05/01 06:46:30;;;;;;;7.97;7.03;;;10.90;87.50;;;;;;5054260;28;20097;-67
2022/05/01 06:48:55;;;;;;;8.68;7.07;;;11.00;87.30;;;;;;5055631;28;20488;-67
2022/05/01 06:51:20;;;;;;;8.85;7.15;;;11.00;87.10;;;;;;5049369;28;20075;-67
2022/05/01 06:53:46;;;;;;;8.73;6.68;;;11.10;87.10;;;;;;5053624;28;20112;-67
2022/05/01 06:56:12;;;;;;;9.30;7.05;;;11.20;86.90;;;;;;5050765;28;20036;-67
2022/05/01 06:58:37;;;;;;;8.98;7.05;;;11.30;86.80;;;;;;5051115;28;20124;-67
2022/05/01 07:01:03;;;;;;;8.32;6.80;;;11.30;86.60;;;;;;5050842;28;20021;-67
2022/05/01 07:03:28;;;;;;;10.85;7.15;;;11.30;86.40;;;;;;5050992;28;20381;-67
2022/05/01 07:05:54;;;;;;;12.07;8.23;;;11.40;86.40;;;;;;5035922;28;20488;-67
2022/05/01 07:08:20;;;;;;;8.95;7.32;;;11.40;86.30;;;;;;5050715;28;20025;-67
2022/05/01 07:10:46;;;;;;;9.70;7.53;;;11.50;86.20;;;;;;5051129;28;20009;-67
2022/05/01 07:13:11;;;;;;;11.70;8.00;;;11.50;86.10;;;;;;5050753;28;20358;-67
2022/05/01 07:15:38;;;;;;;8.10;6.97;;;11.60;86.00;;;;;;5052477;28;20029;-67
2022/05/01 07:18:04;;;;;;;8.52;6.85;;;11.70;85.90;;;;;;5052187;28;20049;-67
2022/05/01 07:20:33;;;;;;;7.65;6.43;;;11.70;85.70;;;;;;5054170;28;20036;-66
2022/05/01 07:22:58;;;;;;;8.32;6.55;;;11.80;85.60;;;;;;5072608;28;20023;-66
2022/05/01 07:25:24;;;;;;;7.68;6.60;;;11.90;85.30;;;;;;5067049;28;20021;-66
2022/05/01 07:27:49;;;;;;;9.43;7.07;;;12.00;85.20;;;;;;5052162;28;20025;-67
2022/05/01 07:30:15;;;;;;;9.68;7.53;;;12.10;85.10;;;;;;5052154;28;20056;-67
2022/05/01 07:32:40;;;;;;;9.38;7.20;;;12.20;85.00;;;;;;5052159;28;20025;-66
2022/05/01 07:35:06;;;;;;;9.15;7.47;;;12.20;84.90;;;;;;5051475;28;20024;-66
2022/05/01 07:37:32;;;;;;;8.90;7.13;;;12.30;84.80;;;;;;5051800;28;20495;-67
2022/05/01 07:39:57;;;;;;;7.60;6.72;;;12.40;84.50;;;;;;5051816;28;20032;-67
2022/05/01 07:42:23;;;;;;;10.77;7.07;;;12.50;84.30;;;;;;5052240;28;20051;-66
2022/05/01 07:44:50;;;;;;;10.10;7.20;;;12.60;84.00;;;;;;5052071;28;20493;-66
2022/05/01 07:47:15;;;;;;;8.48;7.30;;;12.70;83.70;;;;;;5051698;28;20035;-67
2022/05/01 07:49:41;;;;;;;8.10;6.65;;;12.80;83.40;;;;;;5051777;28;20025;-67
2022/05/01 07:52:07;;;;;;;10.02;6.78;;;12.80;83.00;;;;;;5051848;28;20099;-67
2022/05/01 07:54:33;;;;;;;8.50;6.28;;;12.90;82.80;;;;;;5067242;28;20028;-67
2022/05/01 07:56:58;;;;;;;7.13;5.43;;;13.00;82.50;;;;;;5051787;28;20033;-67
2022/05/01 07:59:24;;;;;;;6.13;5.47;;;13.10;82.70;;;;;;5051666;28;20500;-67
2022/05/01 08:01:49;;;;;;;8.70;6.10;;;13.20;81.90;;;;;;5051873;28;20025;-67
2022/05/01 08:04:30;;;;;;;7.03;6.00;;;13.20;81.40;;;;;;5051719;28;20508;-68
2022/05/01 08:06:58;;;;;;;7.07;5.65;;;13.30;81.10;;;;;;5051579;28;20025;-67
2022/05/01 08:09:24;;;;;;;7.03;5.03;;;13.40;80.60;;;;;;5051543;28;20017;-67
2022/05/01 08:11:51;;;;;;;5.82;5.18;;;13.50;80.20;;;;;;5051651;28;20028;-67
2022/05/01 08:14:17;;;;;;;6.03;4.65;;;13.60;79.70;;;;;;5051748;28;20057;-67
2022/05/01 08:16:42;;;;;;;6.60;4.75;;;13.60;79.00;;;;;;5051629;28;20060;-67
2022/05/01 08:21:55;;;;;;;8.48;6.20;;;13.70;77.00;;;;;;5050086;28;20039;-68
2022/05/01 08:24:20;;;;;;;8.30;6.00;;;13.60;76.40;;;;;;5050150;28;20021;-67
2022/05/01 08:26:49;;;;;;;7.45;5.47;;;13.60;76.20;;;;;;5050107;28;20021;-67
2022/05/01 08:29:15;;;;;;;5.50;4.95;;;13.70;76.20;;;;;;5050032;28;20025;-67
2022/05/01 08:31:44;;;;;;;6.45;4.97;;;13.80;76.30;;;;;;5047775;28;20021;-67
2022/05/01 08:34:11;;;;;;;6.47;5.18;;;13.90;76.10;;;;;;5050030;28;20020;-67
2022/05/01 08:36:37;;;;;;;6.40;5.05;;;14.00;75.90;;;;;;5049471;28;20548;-67
2022/05/01 08:39:03;;;;;;;9.30;6.03;;;14.10;75.60;;;;;;5049887;28;20017;-67
2022/05/01 08:41:31;;;;;;;10.20;6.82;;;14.20;75.30;;;;;;5050044;28;20045;-67
2022/05/01 08:43:58;;;;;;;8.68;7.13;;;14.20;75.50;;;;;;5050039;28;20025;-67
2022/05/01 08:46:31;;;;;;;7.63;6.43;;;14.20;74.40;;;;;;5052204;28;20096;-68
2022/05/01 08:49:03;;;;;;;7.65;6.15;;;14.20;74.40;;;;;;5065624;28;20021;-67
2022/05/01 08:51:40;;;;;;;7.55;6.75;;;14.20;74.50;;;;;;5043849;28;20025;-67
2022/05/01 08:54:08;;;;;;;6.78;6.18;;;14.40;74.20;;;;;;5051765;28;20013;-67
2022/05/01 08:56:35;;;;;;;8.77;7.07;;;14.50;73.80;;;;;;5053601;28;20496;-67
2022/05/01 08:59:06;;;;;;;8.75;6.65;;;14.60;73.20;;;;;;5050721;28;20028;-67
2022/05/01 09:01:33;;;;;;;8.90;7.43;;;14.60;73.00;;;;;;5053506;28;20021;-67
2022/05/01 09:04:00;;;;;;;7.30;6.13;;;14.70;72.60;;;;;;5052941;28;20024;-67
2022/05/01 09:06:26;;;;;;;10.20;7.43;;;14.70;72.20;;;;;;5053200;28;20026;-67
2022/05/01 09:08:51;;;;;;;7.15;5.55;;;14.80;71.60;;;;;;5046359;28;20074;-68
2022/05/01 09:14:03;;;;;;;6.55;5.10;;;15.00;71.30;;;;;;5053108;28;20032;-67
2022/05/01 09:16:29;;;;;;;6.13;4.60;;;15.00;70.10;;;;;;5053006;28;20025;-67
2022/05/01 09:18:54;;;;;;;5.85;4.40;;;15.00;69.60;;;;;;5053558;28;20048;-67
2022/05/01 09:21:20;;;;;;;5.07;3.85;;;14.90;68.90;;;;;;5054525;28;20033;-67
2022/05/01 09:23:47;;;;;;;5.30;4.25;;;15.00;68.90;;;;;;5054235;28;20424;-67
2022/05/01 09:26:17;;;;;;;5.47;4.60;;;15.00;68.60;;;;;;5054245;28;20381;-67
2022/05/01 09:28:54;;;;;;;4.32;3.60;;;15.20;68.50;;;;;;5053730;28;20021;-67
2022/05/01 09:31:44;;;;;;;6.10;4.55;;;15.30;68.20;;;;;;5052304;28;20525;-67
2022/05/01 09:34:19;;;;;;;;;;;15.40;67.50;;;;;;5051619;28;20528;-67
2022/05/01 09:36:45;;;;;;;5.00;3.72;;;15.40;67.70;;;;;;5052259;28;19908;-67
2022/05/01 09:39:17;;;;;;;4.32;3.58;;;15.40;67.40;;;;;;5052500;28;20063;-67
2022/05/01 09:41:42;;;;;;;3.85;3.40;;;15.50;66.90;;;;;;5052644;28;20541;-67
2022/05/01 09:44:15;;;;;;;4.80;3.60;;;15.50;66.70;;;;;;5052363;28;20172;-67
2022/05/01 09:46:43;;;;;;;4.18;3.67;;;15.50;66.40;;;;;;5046812;28;20028;-67
2022/05/01 09:49:12;;;;;;;4.75;4.05;;;15.50;66.20;;;;;;5049989;28;20496;-67
2022/05/01 09:51:46;;;;;;;8.77;4.75;;;15.40;65.60;;;;;;5050655;28;20025;-67
2022/05/01 09:54:24;;;;;;;6.90;3.80;;;15.40;64.60;;;;;;5052399;28;20091;-67
2022/05/01 09:56:54;;;;;;;4.25;2.75;;;15.40;64.50;;;;;;5052185;28;20031;-67
2022/05/01 09:59:21;;;;;;;3.97;3.30;;;15.40;64.00;;;;;;5051736;28;20076;-67
2022/05/01 10:01:58;;;;;;;4.15;2.83;;;15.30;63.70;;;;;;5062504;28;20028;-67
2022/05/01 10:04:24;;;;;;;3.53;2.40;;;15.40;63.40;;;;;;5050814;28;20161;-67
2022/05/01 10:06:54;;;;;;;2.67;2.45;;;15.50;63.30;;;;;;5051702;28;20407;-67
2022/05/01 10:09:25;;;;;;;4.13;2.33;;;15.50;63.00;;;;;;5051692;28;20021;-67
2022/05/01 10:11:57;;;;;;;2.92;2.25;;;15.50;62.50;;;;;;5051805;28;20598;-67
2022/05/01 10:14:23;;;;;;;3.33;2.25;;;15.50;62.40;;;;;;5053272;28;20554;-67
2022/05/01 10:16:49;;;;;;;2.75;2.38;;;15.40;62.10;;;;;;5053384;28;20508;-67
2022/05/01 10:19:19;;;;;;;2.92;2.30;;;15.40;62.20;;;;;;5052264;28;20049;-67
2022/05/01 10:21:50;;;;;;;3.65;2.53;;;15.40;62.30;;;;;;5052305;28;20525;-67
2022/05/01 10:24:17;;;;;;;5.05;2.85;;;15.40;62.10;;;;;;5051229;28;20041;-67
2022/05/01 10:26:55;;;;;;;4.00;2.47;;;15.40;62.20;;;;;;5052107;28;20037;-67
2022/05/01 10:33:00;;;;;;;3.97;3.05;;;15.50;61.80;;;;;;5052121;28;20534;-67
2022/05/01 10:35:45;;;;;;;3.08;2.30;;;15.50;61.80;;;;;;5050975;28;20028;-67
2022/05/01 10:38:23;;;;;;;4.22;2.80;;;15.50;61.70;;;;;;5051151;28;20095;-67
2022/05/01 10:40:55;;;;;;;5.47;4.22;;;15.50;61.50;;;;;;5051006;28;20017;-67
2022/05/01 10:43:31;;;;;;;6.55;3.65;;;15.60;60.60;;;;;;5052825;28;20057;-67
2022/05/01 10:46:21;;;;;;;3.78;2.85;;;15.60;60.70;;;;;;5052754;28;20112;-67
2022/05/01 10:48:48;;;;;;;5.18;3.40;;;15.60;60.70;;;;;;5053044;28;20025;-67
2022/05/01 10:51:31;;;;;;;4.07;3.25;;;15.60;60.40;;;;;;5052809;28;20435;-67
2022/05/01 10:54:19;;;;;;;4.43;2.80;;;15.60;60.40;;;;;;5052516;28;20021;-67
2022/05/01 10:56:50;;;;;;;3.33;2.50;;;15.70;60.10;;;;;;5052682;28;20032;-67
2022/05/01 10:59:38;;;;;;;3.53;2.47;;;15.70;60.10;;;;;;5052596;28;20481;-67
2022/05/01 11:02:05;;;;;;;4.00;3.07;;;15.80;59.90;;;;;;5052837;28;20039;-67
2022/05/01 11:04:42;;;;;;;5.53;2.80;;;15.80;59.70;;;;;;5052409;28;20267;-67
2022/05/01 11:07:13;;;;;;;3.95;2.90;;;16.00;59.50;;;;;;5051986;28;20048;-67
2022/05/01 11:09:42;;;;;;;4.03;2.72;;;16.00;59.30;;;;;;5049467;28;20088;-67
2022/05/01 11:12:09;;;;;;;6.38;2.78;;;16.10;59.20;;;;;;5049937;28;20025;-67
2022/05/01 11:14:38;;;;;;;2.88;2.20;;;16.20;58.70;;;;;;5047940;28;20437;-67
2022/05/01 11:17:04;;;;;;;5.18;3.50;;;16.30;58.50;;;;;;5049217;28;20025;-67
2022/05/01 11:19:34;;;;;;;6.18;4.93;;;16.40;57.60;;;;;;5049110;28;20056;-67
2022/05/01 11:22:07;;;;;;;4.95;3.47;;;16.40;55.30;;;;;;5048610;28;20040;-67
2022/05/01 11:24:43;;;;;;;4.60;3.30;;;16.40;55.90;;;;;;5048547;28;20508;-67
2022/05/01 11:27:16;;;;;;;3.97;3.10;;;16.60;55.80;;;;;;5047960;28;20025;-67
2022/05/01 11:30:07;;;;;;;3.75;2.47;;;16.70;55.70;;;;;;5049950;28;20013;-67
2022/05/01 11:32:58;;;;;;;2.40;2.10;;;16.90;55.50;;;;;;5050542;28;20484;-67
2022/05/01 11:35:54;;;;;;;3.60;2.33;;;17.20;55.50;;;;;;5049420;28;20036;-67
2022/05/01 11:38:21;;;;;;;4.32;2.58;;;17.40;55.20;;;;;;5048826;28;20498;-67
2022/05/01 11:40:57;;;;;;;3.97;2.80;;;17.60;54.60;;;;;;5050420;28;20072;-67
2022/05/01 11:43:23;;;;;;;4.55;3.40;;;17.80;53.80;;;;;;5051146;28;20028;-67
2022/05/01 11:45:49;;;;;;;2.83;2.50;;;18.00;52.70;;;;;;5057060;28;20423;-67
2022/05/01 11:48:17;;;;;;;3.60;2.50;;;18.20;52.50;;;;;;5050103;28;20752;-67
2022/05/01 11:50:44;;;;;;;3.55;2.60;;;18.40;51.70;;;;;;5050541;28;20484;-67
2022/05/01 11:53:19;;;;;;;4.53;2.95;;;18.60;51.20;;;;;;5050205;28;20048;-67
2022/05/01 12:04:25;;;;;;;4.20;3.20;;;19.20;48.90;;;;;;5052147;28;20032;-67
2022/05/01 12:07:09;;;;;;;3.75;2.85;;;19.50;48.60;;;;;;5051800;28;20021;-67
2022/05/01 12:09:40;;;;;;;3.50;3.20;;;19.80;47.80;;;;;;5051788;28;20025;-67
2022/05/01 12:12:16;;;;;;;7.50;4.10;;;20.00;48.00;;;;;;5051559;28;20410;-67
2022/05/01 12:14:44;;;;;;;4.43;3.70;;;19.90;45.70;;;;;;5050595;28;20427;-67
2022/05/01 12:17:15;;;;;;;3.97;3.03;;;19.90;46.50;;;;;;5049722;28;20029;-66
2022/05/01 12:19:48;;;;;;;4.55;3.28;;;20.20;47.20;;;;;;5051128;28;20033;-67
2022/05/01 12:22:21;;;;;;;3.92;3.00;;;20.50;47.10;;;;;;5055057;28;20025;-67
2022/05/01 12:24:48;;;;;;;5.50;5.00;;;20.80;46.40;;;;;;5055485;28;20032;-68
2022/05/01 12:27:15;;;;;;;3.97;3.28;;;20.70;44.10;;;;;;5055348;28;20017;-67
2022/05/01 12:29:53;;;;;;;3.10;2.72;;;20.80;45.40;;;;;;5055274;28;20544;-67
2022/05/01 12:32:18;;;;;;;6.18;2.85;;;21.10;45.70;;;;;;5053999;28;20040;-68
2022/05/01 12:34:44;;;;;;;4.80;3.40;;;21.40;45.60;;;;;;5053636;28;20021;-67
2022/05/01 12:37:17;;;;;;;4.55;3.30;;;21.70;45.10;;;;;;5053500;28;20082;-68
2022/05/01 12:39:54;;;;;;;3.40;2.85;;;22.00;44.60;;;;;;5054379;28;20048;-67
2022/05/01 12:45:10;;;;;;;3.88;2.40;;;22.20;44.20;;;;;;5055350;28;20079;-67
2022/05/01 12:47:41;;;;;;;4.53;3.63;;;22.40;44.00;;;;;;5055020;28;20100;-68
2022/05/01 12:50:21;;;;;;;4.95;3.80;;;22.30;43.60;;;;;;5053295;28;20036;-67
2022/05/01 12:52:47;;;;;;;;;;;22.00;42.60;;;;;;5053179;28;20518;-67
2022/05/01 12:55:20;;;;;;;4.53;3.55;;;21.60;43.20;;;;;;5051878;28;19924;-68
2022/05/01 12:57:48;;;;;;;4.95;4.00;;;21.70;43.60;;;;;;5051121;28;20476;-67
2022/05/01 13:00:29;;;;;;;4.20;3.65;;;21.80;43.10;;;;;;5053360;28;20082;-67
2022/05/01 13:03:20;;;;;;;5.43;4.13;;;22.00;43.40;;;;;;5053355;28;20017;-67
2022/05/01 13:06:09;;;;;;;3.92;3.38;;;22.10;43.00;;;;;;5051561;28;20056;-67
2022/05/01 13:08:42;;;;;;;3.85;3.08;;;22.40;43.00;;;;;;5053040;28;20017;-67
2022/05/01 13:11:31;;;;;;;5.15;3.55;;;22.60;42.80;;;;;;5053256;28;20029;-67
2022/05/01 13:14:07;;;;;;;3.80;3.07;;;22.50;41.60;;;;;;5052730;28;20029;-67
2022/05/01 13:16:33;;;;;;;3.15;2.60;;;22.60;42.20;;;;;;5057342;28;20032;-67
2022/05/01 13:19:13;;;;;;;3.90;2.97;;;22.80;42.30;;;;;;5053046;28;20041;-68
2022/05/01 13:21:50;;;;;;;3.47;2.90;;;22.90;42.40;;;;;;5052718;28;20071;-68
2022/05/01 13:24:30;;;;;;;2.92;2.58;;;23.10;42.10;;;;;;5052820;28;20020;-67
2022/05/01 13:26:57;;;;;;;;;;;23.10;41.50;;;;;;5050303;28;20384;-68
2022/05/01 13:29:23;;;;;;;4.85;3.10;;;23.00;40.70;;;;;;5053215;28;19948;-67
2022/05/01 13:31:49;;;;;;;4.10;2.65;;;22.70;40.00;;;;;;5055121;28;20074;-68
2022/05/01 13:34:15;;;;;;;5.40;3.33;;;22.90;40.60;;;;;;5051629;28;20033;-67